Buoy 17652

sailwx.info

Track history (hours):
 
Tides and Currents Weather Stations Pressure Air Temp Water Temp Dewpoint Dewpoint Depression Visibility Wind Speed Wind Dir Waves Ship Positions

Drifting buoy 17652

Last reported at 2018-Apr-26 04:00 UTC. Time now 2018-Apr-26 05:53 UTC.
Position S 37°59' E 070°10'.

Barometer 1004.3 mb
Water temperature 17.2 ° C

Date/timePositionNaut miles runAvg speedWind from/ knotsBaromVisibWave heightAir tempDewpointWater temp
2018-Apr-26 04:00S 37°59' E 070°10'1 0.6 1004.3 17.2
2018-Apr-26 03:00S 37°58' E 070°10'1 1.2 1005.5 17.1
2018-Apr-26 02:00S 37°57' E 070°10'1 0.8 1005.9 17.1
2018-Apr-26 01:00S 37°56' E 070°10'0 0.0 1006.6 17.1
2018-Apr-25 23:00S 37°56' E 070°10'1 0.8 1008.8 17.1
2018-Apr-25 22:00S 37°56' E 070°10'0 0.2 1010.1 17.1
2018-Apr-25 20:00S 37°56' E 070°09'1 0.6 1012.6 17.1
2018-Apr-25 18:00S 37°55' E 070°08'0 0.0 1015.1 17.1
2018-Apr-25 17:00S 37°55' E 070°08'0 0.5 1016.0 17.2
2018-Apr-25 16:00S 37°55' E 070°07'1 1.1 1016.2 17.2
2018-Apr-25 15:00S 37°55' E 070°06'2 0.8 1016.8 17.3
2018-Apr-25 13:00S 37°53' E 070°05'0 0.0 1017.1 17.4
2018-Apr-25 12:00S 37°53' E 070°05'2 1.9 1016.9 17.4
2018-Apr-25 11:00S 37°52' E 070°03'0 0.0 1017.0 17.4
2018-Apr-25 10:00S 37°52' E 070°03'1 0.2 1017.1 17.5
2018-Apr-25 05:00S 37°52' E 070°04'1 0.6 1019.2 17.5
2018-Apr-25 04:00S 37°52' E 070°04'1 0.8 1019.0 17.5
2018-Apr-25 03:00S 37°53' E 070°03'0 0.0 1018.5 17.5
2018-Apr-25 02:00S 37°53' E 070°03'1 0.8 1017.8 17.5
2018-Apr-25 01:00S 37°53' E 070°02'1 0.5 1017.2 17.5
2018-Apr-24 23:00S 37°53' E 070°01'1 1.1 1015.8 17.6
2018-Apr-24 22:00S 37°54' E 070°00'3 0.7 1015.3 17.6
2018-Apr-24 18:00S 37°54' E 069°56'1 0.8 1014.1 17.5
2018-Apr-24 17:00S 37°53' E 069°56'0 0.5 1013.2 17.5
2018-Apr-24 16:00S 37°53' E 069°55'1 1.1 1012.0 17.6
2018-Apr-24 15:00S 37°53' E 069°54'1 1.4 1011.3 17.6
2018-Apr-24 14:00S 37°53' E 069°52'1 0.6 1010.5 17.6
2018-Apr-24 13:00S 37°52' E 069°52'1 1.1 1009.0 17.6
2018-Apr-24 12:00S 37°52' E 069°51'1 1.4 1008.3 17.6
2018-Apr-24 11:00S 37°52' E 069°49'0 0.0 1007.7 17.6
2018-Apr-24 10:00S 37°52' E 069°49'5 1.1 1007.5 17.6
2018-Apr-24 05:00S 37°54' E 069°43'1 0.8 1005.5 17.6
2018-Apr-24 04:00S 37°55' E 069°43'2 1.9 1004.8 17.6
2018-Apr-24 03:00S 37°55' E 069°40'2 1.9 1003.8 17.7
2018-Apr-24 02:00S 37°55' E 069°38'0 0.0 1002.7 17.7
2018-Apr-24 01:00S 37°55' E 069°38'2 1.5 1002.7 17.7
2018-Apr-24 00:00S 37°54' E 069°36'0 0.0 1002.6 17.6
2018-Apr-23 23:00S 37°54' E 069°36'2 2.4 1003.0 17.6
2018-Apr-23 22:00S 37°54' E 069°33'4 1.3 1004.4 17.6
2018-Apr-23 19:00S 37°53' E 069°28'0 0.0 1007.9 17.5
2018-Apr-23 18:00S 37°53' E 069°28'1 1.1 1009.0 17.5
2018-Apr-23 17:00S 37°52' E 069°27'1 1.1 1010.7 17.6
2018-Apr-23 16:00S 37°52' E 069°26'0 0.0 1011.3 17.6
2018-Apr-23 15:00S 37°52' E 069°26'2 2.0 1012.1 17.6
2018-Apr-23 14:00S 37°50' E 069°25'1 0.9 1012.6 17.6
2018-Apr-23 13:00S 37°50' E 069°23'2 1.9 1013.2 17.6
2018-Apr-23 12:00S 37°49' E 069°22'0 0.0 1013.8 17.6
2018-Apr-23 11:00S 37°49' E 069°22'2 2.3 1015.0 17.6
2018-Apr-23 10:00S 37°47' E 069°20'1 0.2 1015.6 17.6
2018-Apr-23 05:00S 37°47' E 069°21'1 0.8 1019.5 17.6
2018-Apr-23 04:00S 37°46' E 069°20'0 0.0 1020.1 17.6
2018-Apr-23 03:00S 37°46' E 069°20'1 0.8 1019.9 17.6
2018-Apr-23 02:00S 37°46' E 069°20'1 0.6 1020.1 17.6
2018-Apr-23 01:00S 37°45' E 069°20'0 0.0 1020.3 17.6
2018-Apr-23 00:00S 37°45' E 069°20'2 1.5 1020.3 17.6
2018-Apr-22 23:00S 37°44' E 069°19'0 0.0 1020.3 17.6
2018-Apr-22 22:00S 37°44' E 069°19'1 1.1 1021.0 17.6
2018-Apr-22 21:00S 37°43' E 069°17'2 0.6 1021.5 17.6
2018-Apr-22 18:00S 37°41' E 069°17'0 0.0 1022.1 17.6
2018-Apr-22 17:00S 37°41' E 069°17'1 0.6 1022.5 17.6
2018-Apr-22 16:00S 37°41' E 069°17'0 0.5 1022.5 17.6
2018-Apr-22 15:00S 37°41' E 069°16'1 0.8 1022.6 17.6
2018-Apr-22 14:00S 37°40' E 069°17'1 1.1 1022.5 17.6
2018-Apr-22 13:00S 37°41' E 069°16'1 1.4 1022.4 17.6
2018-Apr-22 12:00S 37°41' E 069°14'0 0.0 1022.2 17.6
2018-Apr-22 11:00S 37°41' E 069°14'5 4.9 1022.1 17.6
2018-Apr-22 10:00S 37°42' E 069°08'1 0.1 1022.3 17.6
2018-Apr-22 05:00S 37°43' E 069°08'1 0.9 1024.1 17.1
2018-Apr-22 04:00S 37°43' E 069°07'1 0.9 1024.1 17.1
2018-Apr-22 03:00S 37°43' E 069°05'0 0.0 1023.9 17.2
2018-Apr-22 02:00S 37°43' E 069°05'1 0.8 1023.7 17.0
2018-Apr-22 01:00S 37°43' E 069°05'0 0.0 1023.4 16.8
2018-Apr-22 00:00S 37°43' E 069°05'0 0.0 1023.2 16.6
2018-Apr-21 22:00S 37°43' E 069°05'1 0.3 1023.8 16.6
2018-Apr-21 18:00S 37°44' E 069°04'0 0.5 1024.3 16.5
2018-Apr-21 17:00S 37°44' E 069°04'1 1.3 1024.3 16.5
2018-Apr-21 16:00S 37°46' E 069°04'0 0.0 1024.0 16.5
2018-Apr-21 15:00S 37°46' E 069°04'2 1.0 1024.3 16.4
2018-Apr-21 13:00S 37°47' E 069°03'1 0.6 1023.6 16.3
2018-Apr-21 12:00S 37°48' E 069°03'1 0.9 1023.5 16.3
2018-Apr-21 11:00S 37°48' E 069°02'3 2.8 1023.6 16.3
2018-Apr-21 10:00S 37°48' E 068°58'1 0.2 1023.3 16.3
2018-Apr-21 05:00S 37°47' E 068°59'1 0.8 1024.6 16.3
2018-Apr-21 04:00S 37°47' E 068°58'0 0.5 1024.6 16.2
2018-Apr-21 03:00S 37°47' E 068°59'1 0.6 1024.1 16.2
2018-Apr-21 02:00S 37°47' E 068°59'0 0.0 1024.2 16.2
2018-Apr-21 01:00S 37°47' E 068°59'0 0.0 1024.2 16.1
2018-Apr-21 00:00S 37°47' E 068°59'1 1.3 1024.0 16.1
2018-Apr-20 23:00S 37°49' E 068°59'0 0.5 1023.7 16.0
2018-Apr-20 22:00S 37°49' E 068°59'0 0.0 1023.3 16.0
2018-Apr-20 21:00S 37°49' E 068°59'3 1.0 1023.7 16.0
2018-Apr-20 18:00S 37°52' E 068°58'1 1.1 1023.7 16.2
2018-Apr-20 17:00S 37°52' E 068°57'1 0.6 1024.2 16.2
2018-Apr-20 16:00S 37°53' E 068°57'0 0.5 1024.4 16.4
2018-Apr-20 15:00S 37°53' E 068°56'1 1.1 1024.2 16.4
2018-Apr-20 14:00S 37°53' E 068°55'1 0.3 1024.1 16.5
2018-Apr-20 12:00S 37°54' E 068°55'2 1.9 1023.6 16.6
2018-Apr-20 11:00S 37°56' E 068°55'2 1.8 1023.8 16.7
2018-Apr-20 10:00S 37°54' E 068°55'3 0.5 1023.8 16.6
2018-Apr-20 05:00S 37°56' E 068°56'1 0.9 1024.9 16.5
2018-Apr-20 04:00S 37°56' E 068°55'1 0.6 1025.1 16.5
2018-Apr-20 03:00S 37°57' E 068°55'2 1.5 1024.9 16.5
2018-Apr-20 02:00S 37°58' E 068°56'1 0.6 1024.6 16.5
2018-Apr-20 01:00S 37°59' E 068°56'2 1.9 1024.3 16.4
2018-Apr-20 00:00S 38°01' E 068°55'4 2.0 1024.0 16.4
2018-Apr-19 22:00S 38°04' E 068°53'0 0.0 1023.8 16.4
2018-Apr-19 18:00S 38°04' E 068°53'1 0.6 1024.0 16.5
2018-Apr-19 17:00S 38°05' E 068°53'0 0.0 1024.1 16.5
2018-Apr-19 16:00S 38°05' E 068°53'1 1.1 1023.8 16.5
2018-Apr-19 15:00S 38°05' E 068°52'1 0.8 1023.5 16.5
2018-Apr-19 14:00S 38°06' E 068°52'0 0.0 1023.4 16.6
2018-Apr-19 13:00S 38°06' E 068°52'1 0.8 1023.1 16.6
2018-Apr-19 12:00S 38°07' E 068°53'0 0.0 1022.9 16.6
2018-Apr-19 10:00S 38°07' E 068°53'5 1.0 1022.7 16.5
2018-Apr-19 05:00S 38°11' E 068°53'0 0.0 1022.5 16.4
2018-Apr-19 04:00S 38°11' E 068°53'2 2.0 1022.3 16.4
2018-Apr-19 03:00S 38°13' E 068°52'0 0.0 1021.7 16.4
2018-Apr-19 02:00S 38°13' E 068°52'1 0.6 1021.1 16.4
2018-Apr-19 01:00S 38°14' E 068°52'2 0.9 1020.7 16.4
2018-Apr-18 23:00S 38°16' E 068°52'1 0.8 1019.8 16.4
2018-Apr-18 22:00S 38°16' E 068°53'0 0.5 1019.8 16.4
2018-Apr-18 21:00S 38°16' E 068°52'0 0.0 1019.5 16.4
2018-Apr-18 20:00S 38°16' E 068°52'1 0.4 1018.8 16.4
2018-Apr-18 18:00S 38°17' E 068°53'1 1.2 1018.4 16.4
2018-Apr-18 17:00S 38°18' E 068°53'0 0.0 1017.9 16.4
2018-Apr-18 16:00S 38°18' E 068°53'2 1.5 1017.8 16.4
2018-Apr-18 15:00S 38°19' E 068°54'0 0.0 1017.5 16.5
2018-Apr-18 14:00S 38°19' E 068°54'3 2.6 1017.0 16.5
2018-Apr-18 13:00S 38°22' E 068°55'7 3.4 1015.9 16.5
2018-Apr-18 11:00S 38°28' E 068°53'0 0.0 1014.6 16.6
2018-Apr-18 05:00S 38°28' E 068°53'2 1.9 1011.4 16.7
2018-Apr-18 04:00S 38°29' E 068°52'0 0.0 1010.6 16.7
2018-Apr-18 03:00S 38°29' E 068°52'1 0.8 1009.4 16.8
2018-Apr-18 02:00S 38°30' E 068°51'1 0.6 1008.4 16.8
2018-Apr-18 00:00S 38°31' E 068°50'0 0.0 1006.8 16.8
2018-Apr-17 23:00S 38°31' E 068°50'1 1.3 1006.4 16.8
2018-Apr-17 22:00S 38°32' E 068°51'0 0.0 1006.3 16.8
2018-Apr-17 21:00S 38°32' E 068°51'3 3.0 1005.9 16.8
2018-Apr-17 20:00S 38°35' E 068°51'1 0.3 1005.2 16.8
2018-Apr-17 18:00S 38°36' E 068°51'2 1.8 1004.9 16.8
2018-Apr-17 17:00S 38°38' E 068°51'1 1.3 1004.4 16.8
2018-Apr-17 16:00S 38°39' E 068°50'0 0.0 1003.8 16.8
2018-Apr-17 15:00S 38°39' E 068°50'1 0.8 1003.1 16.8
2018-Apr-17 14:00S 38°40' E 068°50'2 1.9 1001.7 16.8
2018-Apr-17 13:00S 38°41' E 068°49'0 0.0 1001.0 16.8
2018-Apr-17 12:00S 38°41' E 068°49'3 0.5 1000.4 16.8
2018-Apr-17 05:00S 38°43' E 068°46'1 1.2 998.9 16.9
2018-Apr-17 04:00S 38°44' E 068°46'1 0.6 999.5 16.9
2018-Apr-17 03:00S 38°45' E 068°46'1 0.8 999.2 16.9
2018-Apr-17 02:00S 38°46' E 068°46'1 0.8 997.7 16.9
2018-Apr-17 01:00S 38°46' E 068°46'0 0.0 998.0 16.9
2018-Apr-17 00:00S 38°46' E 068°46'0 0.0 998.0 16.9
2018-Apr-16 23:00S 38°46' E 068°46'1 1.3 998.5 16.9
2018-Apr-16 22:00S 38°47' E 068°46'2 0.5 999.5 16.9
2018-Apr-16 18:00S 38°49' E 068°44'0 0.0 1002.2 16.9
2018-Apr-16 17:00S 38°49' E 068°44'1 1.1 1003.0 16.9
2018-Apr-16 16:00S 38°49' E 068°43'1 0.9 1003.5 16.9
2018-Apr-16 15:00S 38°49' E 068°42'1 1.2 1004.4 16.9
2018-Apr-16 14:00S 38°48' E 068°42'0 0.0 1005.0 17.0
2018-Apr-16 13:00S 38°48' E 068°42'2 2.4 1005.5 17.0
2018-Apr-16 12:00S 38°46' E 068°43'0 0.0 1006.2 17.0
2018-Apr-16 10:00S 38°46' E 068°43'0 0.0 1007.4 17.0
2018-Apr-16 05:00S 38°46' E 068°43'0 0.0 1011.8 17.0
2018-Apr-16 04:00S 38°46' E 068°43'   1012.4 17.0
Track history (hours):
 
Tides and Currents Weather Stations Pressure Air Temp Water Temp Dewpoint Dewpoint Depression Visibility Wind Speed Wind Dir Waves Ship Positions

Drifting buoy 17652

Last reported at 2018-Apr-26 04:00 UTC. Time now 2018-Apr-26 05:53 UTC.
Position S 37°59' E 070°10'.

Barometer 1004.3 mb
Water temperature 17.2 ° C

Date/timePositionNaut miles runAvg speedWind from/ knotsBaromVisibWave heightAir tempDewpointWater temp
2018-Apr-26 04:00S 37°59' E 070°10'1 0.6 1004.3 17.2
2018-Apr-26 03:00S 37°58' E 070°10'1 1.2 1005.5 17.1
2018-Apr-26 02:00S 37°57' E 070°10'1 0.8 1005.9 17.1
2018-Apr-26 01:00S 37°56' E 070°10'0 0.0 1006.6 17.1
2018-Apr-25 23:00S 37°56' E 070°10'1 0.8 1008.8 17.1
2018-Apr-25 22:00S 37°56' E 070°10'0 0.2 1010.1 17.1
2018-Apr-25 20:00S 37°56' E 070°09'1 0.6 1012.6 17.1
2018-Apr-25 18:00S 37°55' E 070°08'0 0.0 1015.1 17.1
2018-Apr-25 17:00S 37°55' E 070°08'0 0.5 1016.0 17.2
2018-Apr-25 16:00S 37°55' E 070°07'1 1.1 1016.2 17.2
2018-Apr-25 15:00S 37°55' E 070°06'2 0.8 1016.8 17.3
2018-Apr-25 13:00S 37°53' E 070°05'0 0.0 1017.1 17.4
2018-Apr-25 12:00S 37°53' E 070°05'2 1.9 1016.9 17.4
2018-Apr-25 11:00S 37°52' E 070°03'0 0.0 1017.0 17.4
2018-Apr-25 10:00S 37°52' E 070°03'1 0.2 1017.1 17.5
2018-Apr-25 05:00S 37°52' E 070°04'1 0.6 1019.2 17.5
2018-Apr-25 04:00S 37°52' E 070°04'1 0.8 1019.0 17.5
2018-Apr-25 03:00S 37°53' E 070°03'0 0.0 1018.5 17.5
2018-Apr-25 02:00S 37°53' E 070°03'1 0.8 1017.8 17.5
2018-Apr-25 01:00S 37°53' E 070°02'1 0.5 1017.2 17.5
2018-Apr-24 23:00S 37°53' E 070°01'1 1.1 1015.8 17.6
2018-Apr-24 22:00S 37°54' E 070°00'3 0.7 1015.3 17.6
2018-Apr-24 18:00S 37°54' E 069°56'1 0.8 1014.1 17.5
2018-Apr-24 17:00S 37°53' E 069°56'0 0.5 1013.2 17.5
2018-Apr-24 16:00S 37°53' E 069°55'1 1.1 1012.0 17.6
2018-Apr-24 15:00S 37°53' E 069°54'1 1.4 1011.3 17.6
2018-Apr-24 14:00S 37°53' E 069°52'1 0.6 1010.5 17.6
2018-Apr-24 13:00S 37°52' E 069°52'1 1.1 1009.0 17.6
2018-Apr-24 12:00S 37°52' E 069°51'1 1.4 1008.3 17.6
2018-Apr-24 11:00S 37°52' E 069°49'0 0.0 1007.7 17.6
2018-Apr-24 10:00S 37°52' E 069°49'5 1.1 1007.5 17.6
2018-Apr-24 05:00S 37°54' E 069°43'1 0.8 1005.5 17.6
2018-Apr-24 04:00S 37°55' E 069°43'2 1.9 1004.8 17.6
2018-Apr-24 03:00S 37°55' E 069°40'2 1.9 1003.8 17.7
2018-Apr-24 02:00S 37°55' E 069°38'0 0.0 1002.7 17.7
2018-Apr-24 01:00S 37°55' E 069°38'2 1.5 1002.7 17.7
2018-Apr-24 00:00S 37°54' E 069°36'0 0.0 1002.6 17.6
2018-Apr-23 23:00S 37°54' E 069°36'2 2.4 1003.0 17.6
2018-Apr-23 22:00S 37°54' E 069°33'4 1.3 1004.4 17.6
2018-Apr-23 19:00S 37°53' E 069°28'0 0.0 1007.9 17.5
2018-Apr-23 18:00S 37°53' E 069°28'1 1.1 1009.0 17.5
2018-Apr-23 17:00S 37°52' E 069°27'1 1.1 1010.7 17.6
2018-Apr-23 16:00S 37°52' E 069°26'0 0.0 1011.3 17.6
2018-Apr-23 15:00S 37°52' E 069°26'2 2.0 1012.1 17.6
2018-Apr-23 14:00S 37°50' E 069°25'1 0.9 1012.6 17.6
2018-Apr-23 13:00S 37°50' E 069°23'2 1.9 1013.2 17.6
2018-Apr-23 12:00S 37°49' E 069°22'0 0.0 1013.8 17.6
2018-Apr-23 11:00S 37°49' E 069°22'2 2.3 1015.0 17.6
2018-Apr-23 10:00S 37°47' E 069°20'1 0.2 1015.6 17.6
2018-Apr-23 05:00S 37°47' E 069°21'1 0.8 1019.5 17.6
2018-Apr-23 04:00S 37°46' E 069°20'0 0.0 1020.1 17.6
2018-Apr-23 03:00S 37°46' E 069°20'1 0.8 1019.9 17.6
2018-Apr-23 02:00S 37°46' E 069°20'1 0.6 1020.1 17.6
2018-Apr-23 01:00S 37°45' E 069°20'0 0.0 1020.3 17.6
2018-Apr-23 00:00S 37°45' E 069°20'2 1.5 1020.3 17.6
2018-Apr-22 23:00S 37°44' E 069°19'0 0.0 1020.3 17.6
2018-Apr-22 22:00S 37°44' E 069°19'1 1.1 1021.0 17.6
2018-Apr-22 21:00S 37°43' E 069°17'2 0.6 1021.5 17.6
2018-Apr-22 18:00S 37°41' E 069°17'0 0.0 1022.1 17.6
2018-Apr-22 17:00S 37°41' E 069°17'1 0.6 1022.5 17.6
2018-Apr-22 16:00S 37°41' E 069°17'0 0.5 1022.5 17.6
2018-Apr-22 15:00S 37°41' E 069°16'1 0.8 1022.6 17.6
2018-Apr-22 14:00S 37°40' E 069°17'1 1.1 1022.5 17.6
2018-Apr-22 13:00S 37°41' E 069°16'1 1.4 1022.4 17.6
2018-Apr-22 12:00S 37°41' E 069°14'0 0.0 1022.2 17.6
2018-Apr-22 11:00S 37°41' E 069°14'5 4.9 1022.1 17.6
2018-Apr-22 10:00S 37°42' E 069°08'1 0.1 1022.3 17.6
2018-Apr-22 05:00S 37°43' E 069°08'1 0.9 1024.1 17.1
2018-Apr-22 04:00S 37°43' E 069°07'1 0.9 1024.1 17.1
2018-Apr-22 03:00S 37°43' E 069°05'0 0.0 1023.9 17.2
2018-Apr-22 02:00S 37°43' E 069°05'1 0.8 1023.7 17.0
2018-Apr-22 01:00S 37°43' E 069°05'0 0.0 1023.4 16.8
2018-Apr-22 00:00S 37°43' E 069°05'0 0.0 1023.2 16.6
2018-Apr-21 22:00S 37°43' E 069°05'1 0.3 1023.8 16.6
2018-Apr-21 18:00S 37°44' E 069°04'0 0.5 1024.3 16.5
2018-Apr-21 17:00S 37°44' E 069°04'1 1.3 1024.3 16.5
2018-Apr-21 16:00S 37°46' E 069°04'0 0.0 1024.0 16.5
2018-Apr-21 15:00S 37°46' E 069°04'2 1.0 1024.3 16.4
2018-Apr-21 13:00S 37°47' E 069°03'1 0.6 1023.6 16.3
2018-Apr-21 12:00S 37°48' E 069°03'1 0.9 1023.5 16.3
2018-Apr-21 11:00S 37°48' E 069°02'3 2.8 1023.6 16.3
2018-Apr-21 10:00S 37°48' E 068°58'1 0.2 1023.3 16.3
2018-Apr-21 05:00S 37°47' E 068°59'1 0.8 1024.6 16.3
2018-Apr-21 04:00S 37°47' E 068°58'0 0.5 1024.6 16.2
2018-Apr-21 03:00S 37°47' E 068°59'1 0.6 1024.1 16.2
2018-Apr-21 02:00S 37°47' E 068°59'0 0.0 1024.2 16.2
2018-Apr-21 01:00S 37°47' E 068°59'0 0.0 1024.2 16.1
2018-Apr-21 00:00S 37°47' E 068°59'1 1.3 1024.0 16.1
2018-Apr-20 23:00S 37°49' E 068°59'0 0.5 1023.7 16.0
2018-Apr-20 22:00S 37°49' E 068°59'0 0.0 1023.3 16.0
2018-Apr-20 21:00S 37°49' E 068°59'3 1.0 1023.7 16.0
2018-Apr-20 18:00S 37°52' E 068°58'1 1.1 1023.7 16.2
2018-Apr-20 17:00S 37°52' E 068°57'1 0.6 1024.2 16.2
2018-Apr-20 16:00S 37°53' E 068°57'0 0.5 1024.4 16.4
2018-Apr-20 15:00S 37°53' E 068°56'1 1.1 1024.2 16.4
2018-Apr-20 14:00S 37°53' E 068°55'1 0.3 1024.1 16.5
2018-Apr-20 12:00S 37°54' E 068°55'2 1.9 1023.6 16.6
2018-Apr-20 11:00S 37°56' E 068°55'2 1.8 1023.8 16.7
2018-Apr-20 10:00S 37°54' E 068°55'3 0.5 1023.8 16.6
2018-Apr-20 05:00S 37°56' E 068°56'1 0.9 1024.9 16.5
2018-Apr-20 04:00S 37°56' E 068°55'1 0.6 1025.1 16.5
2018-Apr-20 03:00S 37°57' E 068°55'2 1.5 1024.9 16.5
2018-Apr-20 02:00S 37°58' E 068°56'1 0.6 1024.6 16.5
2018-Apr-20 01:00S 37°59' E 068°56'2 1.9 1024.3 16.4
2018-Apr-20 00:00S 38°01' E 068°55'4 2.0 1024.0 16.4
2018-Apr-19 22:00S 38°04' E 068°53'0 0.0 1023.8 16.4
2018-Apr-19 18:00S 38°04' E 068°53'1 0.6 1024.0 16.5
2018-Apr-19 17:00S 38°05' E 068°53'0 0.0 1024.1 16.5
2018-Apr-19 16:00S 38°05' E 068°53'1 1.1 1023.8 16.5
2018-Apr-19 15:00S 38°05' E 068°52'1 0.8 1023.5 16.5
2018-Apr-19 14:00S 38°06' E 068°52'0 0.0 1023.4 16.6
2018-Apr-19 13:00S 38°06' E 068°52'1 0.8 1023.1 16.6
2018-Apr-19 12:00S 38°07' E 068°53'0 0.0 1022.9 16.6
2018-Apr-19 10:00S 38°07' E 068°53'5 1.0 1022.7 16.5
2018-Apr-19 05:00S 38°11' E 068°53'0 0.0 1022.5 16.4
2018-Apr-19 04:00S 38°11' E 068°53'2 2.0 1022.3 16.4
2018-Apr-19 03:00S 38°13' E 068°52'0 0.0 1021.7 16.4
2018-Apr-19 02:00S 38°13' E 068°52'1 0.6 1021.1 16.4
2018-Apr-19 01:00S 38°14' E 068°52'2 0.9 1020.7 16.4
2018-Apr-18 23:00S 38°16' E 068°52'1 0.8 1019.8 16.4
2018-Apr-18 22:00S 38°16' E 068°53'0 0.5 1019.8 16.4
2018-Apr-18 21:00S 38°16' E 068°52'0 0.0 1019.5 16.4
2018-Apr-18 20:00S 38°16' E 068°52'1 0.4 1018.8 16.4
2018-Apr-18 18:00S 38°17' E 068°53'1 1.2 1018.4 16.4
2018-Apr-18 17:00S 38°18' E 068°53'0 0.0 1017.9 16.4
2018-Apr-18 16:00S 38°18' E 068°53'2 1.5 1017.8 16.4
2018-Apr-18 15:00S 38°19' E 068°54'0 0.0 1017.5 16.5
2018-Apr-18 14:00S 38°19' E 068°54'3 2.6 1017.0 16.5
2018-Apr-18 13:00S 38°22' E 068°55'7 3.4 1015.9 16.5
2018-Apr-18 11:00S 38°28' E 068°53'0 0.0 1014.6 16.6
2018-Apr-18 05:00S 38°28' E 068°53'2 1.9 1011.4 16.7
2018-Apr-18 04:00S 38°29' E 068°52'0 0.0 1010.6 16.7
2018-Apr-18 03:00S 38°29' E 068°52'1 0.8 1009.4 16.8
2018-Apr-18 02:00S 38°30' E 068°51'1 0.6 1008.4 16.8
2018-Apr-18 00:00S 38°31' E 068°50'0 0.0 1006.8 16.8
2018-Apr-17 23:00S 38°31' E 068°50'1 1.3 1006.4 16.8
2018-Apr-17 22:00S 38°32' E 068°51'0 0.0 1006.3 16.8
2018-Apr-17 21:00S 38°32' E 068°51'3 3.0 1005.9 16.8
2018-Apr-17 20:00S 38°35' E 068°51'1 0.3 1005.2 16.8
2018-Apr-17 18:00S 38°36' E 068°51'2 1.8 1004.9 16.8
2018-Apr-17 17:00S 38°38' E 068°51'1 1.3 1004.4 16.8
2018-Apr-17 16:00S 38°39' E 068°50'0 0.0 1003.8 16.8
2018-Apr-17 15:00S 38°39' E 068°50'1 0.8 1003.1 16.8
2018-Apr-17 14:00S 38°40' E 068°50'2 1.9 1001.7 16.8
2018-Apr-17 13:00S 38°41' E 068°49'0 0.0 1001.0 16.8
2018-Apr-17 12:00S 38°41' E 068°49'3 0.5 1000.4 16.8
2018-Apr-17 05:00S 38°43' E 068°46'1 1.2 998.9 16.9
2018-Apr-17 04:00S 38°44' E 068°46'1 0.6 999.5 16.9
2018-Apr-17 03:00S 38°45' E 068°46'1 0.8 999.2 16.9
2018-Apr-17 02:00S 38°46' E 068°46'1 0.8 997.7 16.9
2018-Apr-17 01:00S 38°46' E 068°46'0 0.0 998.0 16.9
2018-Apr-17 00:00S 38°46' E 068°46'0 0.0 998.0 16.9
2018-Apr-16 23:00S 38°46' E 068°46'1 1.3 998.5 16.9
2018-Apr-16 22:00S 38°47' E 068°46'2 0.5 999.5 16.9
2018-Apr-16 18:00S 38°49' E 068°44'0 0.0 1002.2 16.9
2018-Apr-16 17:00S 38°49' E 068°44'1 1.1 1003.0 16.9
2018-Apr-16 16:00S 38°49' E 068°43'1 0.9 1003.5 16.9
2018-Apr-16 15:00S 38°49' E 068°42'1 1.2 1004.4 16.9
2018-Apr-16 14:00S 38°48' E 068°42'0 0.0 1005.0 17.0
2018-Apr-16 13:00S 38°48' E 068°42'2 2.4 1005.5 17.0
2018-Apr-16 12:00S 38°46' E 068°43'0 0.0 1006.2 17.0
2018-Apr-16 10:00S 38°46' E 068°43'0 0.0 1007.4 17.0
2018-Apr-16 05:00S 38°46' E 068°43'0 0.0 1011.8 17.0
2018-Apr-16 04:00S 38°46' E 068°43'   1012.4 17.0

Dump ship's entire track history